sensor_id;sensor_type;location;lat;lon;timestamp;pressure;altitude;pressure_sealevel;temperature;humidity
30708;BME280;17458;48.958;8.284;2022-09-02T00:01:16;100317.16;;;18.23;66.34
30708;BME280;17458;48.958;8.284;2022-09-02T00:04:05;100312.53;;;18.16;66.42
30708;BME280;17458;48.958;8.284;2022-09-02T00:06:52;100302.63;;;18.13;66.31
30708;BME280;17458;48.958;8.284;2022-09-02T00:09:37;100312.44;;;18.11;66.45
30708;BME280;17458;48.958;8.284;2022-09-02T00:12:23;100308.84;;;18.09;66.49
30708;BME280;17458;48.958;8.284;2022-09-02T00:15:07;100303.41;;;18.06;66.75
30708;BME280;17458;48.958;8.284;2022-09-02T00:17:52;100304.38;;;18.11;66.24
30708;BME280;17458;48.958;8.284;2022-09-02T00:20:38;100298.22;;;18.17;66.02
30708;BME280;17458;48.958;8.284;2022-09-02T00:23:23;100301.72;;;18.13;66.32
30708;BME280;17458;48.958;8.284;2022-09-02T00:26:07;100299.00;;;18.11;66.25
30708;BME280;17458;48.958;8.284;2022-09-02T00:28:52;100298.03;;;18.06;66.23
30708;BME280;17458;48.958;8.284;2022-09-02T00:31:36;100292.66;;;18.06;66.03
30708;BME280;17458;48.958;8.284;2022-09-02T00:34:20;100297.94;;;18.01;66.16
30708;BME280;17458;48.958;8.284;2022-09-02T00:37:07;100296.22;;;18.05;66.10
30708;BME280;17458;48.958;8.284;2022-09-02T00:39:52;100293.47;;;18.02;65.90
30708;BME280;17458;48.958;8.284;2022-09-02T00:42:37;100293.66;;;18.13;66.00
30708;BME280;17458;48.958;8.284;2022-09-02T00:45:21;100289.78;;;17.95;66.24
30708;BME280;17458;48.958;8.284;2022-09-02T00:48:06;100294.19;;;17.92;66.47
30708;BME280;17458;48.958;8.284;2022-09-02T00:50:50;100295.06;;;17.91;66.72
30708;BME280;17458;48.958;8.284;2022-09-02T00:53:36;100296.13;;;18.00;66.44
30708;BME280;17458;48.958;8.284;2022-09-02T00:56:27;100301.28;;;17.88;66.62
30708;BME280;17458;48.958;8.284;2022-09-02T00:59:22;100301.28;;;17.88;66.59
30708;BME280;17458;48.958;8.284;2022-09-02T01:02:09;100294.88;;;17.82;66.66
30708;BME280;17458;48.958;8.284;2022-09-02T01:04:53;100299.28;;;17.78;66.75
30708;BME280;17458;48.958;8.284;2022-09-02T01:07:43;100302.00;;;17.80;66.78
30708;BME280;17458;48.958;8.284;2022-09-02T01:10:31;100294.53;;;17.65;67.41
30708;BME280;17458;48.958;8.284;2022-09-02T01:13:22;100298.75;;;17.54;67.65
30708;BME280;17458;48.958;8.284;2022-09-02T01:16:09;100296.06;;;17.54;67.71
30708;BME280;17458;48.958;8.284;2022-09-02T01:18:57;100296.00;;;17.51;67.50
30708;BME280;17458;48.958;8.284;2022-09-02T01:21:46;100292.47;;;17.55;67.47
30708;BME280;17458;48.958;8.284;2022-09-02T01:24:31;100297.84;;;17.55;67.45
30708;BME280;17458;48.958;8.284;2022-09-02T01:27:20;100296.31;;;17.64;66.95
30708;BME280;17458;48.958;8.284;2022-09-02T01:30:06;100300.59;;;17.58;67.35
30708;BME280;17458;48.958;8.284;2022-09-02T01:32:52;100305.94;;;17.56;67.24
30708;BME280;17458;48.958;8.284;2022-09-02T01:35:37;100300.56;;;17.56;67.34
30708;BME280;17458;48.958;8.284;2022-09-02T01:38:22;100293.50;;;17.60;66.99
30708;BME280;17458;48.958;8.284;2022-09-02T01:41:06;100297.00;;;17.57;66.72
30708;BME280;17458;48.958;8.284;2022-09-02T01:43:51;100296.06;;;17.54;67.06
30708;BME280;17458;48.958;8.284;2022-09-02T01:46:35;100294.06;;;17.45;66.82
30708;BME280;17458;48.958;8.284;2022-09-02T01:49:21;100289.78;;;17.55;66.48
30708;BME280;17458;48.958;8.284;2022-09-02T01:52:06;100288.16;;;17.61;66.06
30708;BME280;17458;48.958;8.284;2022-09-02T01:54:51;100294.19;;;17.50;66.49
30708;BME280;17458;48.958;8.284;2022-09-02T01:57:35;100293.34;;;17.52;66.57
30708;BME280;17458;48.958;8.284;2022-09-02T02:00:23;100285.28;;;17.52;66.38
30708;BME280;17458;48.958;8.284;2022-09-02T02:03:07;100291.28;;;17.39;67.07
30708;BME280;17458;48.958;8.284;2022-09-02T02:05:51;100284.25;;;17.46;66.63
30708;BME280;17458;48.958;8.284;2022-09-02T02:08:37;100295.78;;;17.40;67.03
30708;BME280;17458;48.958;8.284;2022-09-02T02:11:23;100288.44;;;17.33;67.11
30708;BME280;17458;48.958;8.284;2022-09-02T02:14:12;100279.66;;;17.40;66.59
30708;BME280;17458;48.958;8.284;2022-09-02T02:17:03;100275.00;;;17.31;66.90
30708;BME280;17458;48.958;8.284;2022-09-02T02:19:47;100276.88;;;17.35;66.90
30708;BME280;17458;48.958;8.284;2022-09-02T02:22:31;100281.13;;;17.24;66.94
30708;BME280;17458;48.958;8.284;2022-09-02T02:25:15;100282.06;;;17.26;67.17
30708;BME280;17458;48.958;8.284;2022-09-02T02:28:01;100279.34;;;17.25;67.21
30708;BME280;17458;48.958;8.284;2022-09-02T02:30:45;100280.25;;;17.25;67.18
30708;BME280;17458;48.958;8.284;2022-09-02T02:33:30;100278.47;;;17.26;67.15
30708;BME280;17458;48.958;8.284;2022-09-02T02:36:14;100280.25;;;17.27;66.88
30708;BME280;17458;48.958;8.284;2022-09-02T02:38:58;100276.34;;;17.13;67.33
30708;BME280;17458;48.958;8.284;2022-09-02T02:41:44;100281.19;;;17.29;67.06
30708;BME280;17458;48.958;8.284;2022-09-02T02:44:31;100279.31;;;17.23;67.13
30708;BME280;17458;48.958;8.284;2022-09-02T02:47:15;100278.50;;;17.29;67.22
30708;BME280;17458;48.958;8.284;2022-09-02T02:49:59;100274.91;;;17.28;66.83
30708;BME280;17458;48.958;8.284;2022-09-02T02:52:43;100277.41;;;17.19;67.09
30708;BME280;17458;48.958;8.284;2022-09-02T02:55:28;100275.72;;;17.23;67.49
30708;BME280;17458;48.958;8.284;2022-09-02T02:58:13;100277.38;;;17.18;67.46
30708;BME280;17458;48.958;8.284;2022-09-02T03:00:58;100276.53;;;17.20;67.57
30708;BME280;17458;48.958;8.284;2022-09-02T03:03:43;100278.88;;;17.05;68.16
30708;BME280;17458;48.958;8.284;2022-09-02T03:06:27;100275.13;;;16.97;68.51
30708;BME280;17458;48.958;8.284;2022-09-02T03:09:13;100273.25;;;16.93;69.12
30708;BME280;17458;48.958;8.284;2022-09-02T03:11:56;100275.06;;;16.94;69.15
30708;BME280;17458;48.958;8.284;2022-09-02T03:14:42;100266.50;;;16.73;70.03
30708;BME280;17458;48.958;8.284;2022-09-02T03:17:27;100275.91;;;16.55;71.33
30708;BME280;17458;48.958;8.284;2022-09-02T03:20:13;100268.28;;;16.38;72.17
30708;BME280;17458;48.958;8.284;2022-09-02T03:23:00;100267.72;;;16.16;72.93
30708;BME280;17458;48.958;8.284;2022-09-02T03:25:46;100267.50;;;16.07;73.61
30708;BME280;17458;48.958;8.284;2022-09-02T03:28:54;100271.16;;;16.11;73.57
30708;BME280;17458;48.958;8.284;2022-09-02T03:31:39;100267.03;;;15.90;74.51
30708;BME280;17458;48.958;8.284;2022-09-02T03:34:24;100275.66;;;15.79;75.23
30708;BME280;17458;48.958;8.284;2022-09-02T03:37:08;100274.75;;;15.78;75.53
30708;BME280;17458;48.958;8.284;2022-09-02T03:39:53;100274.97;;;15.86;75.12
30708;BME280;17458;48.958;8.284;2022-09-02T03:42:37;100272.00;;;15.77;75.72
30708;BME280;17458;48.958;8.284;2022-09-02T03:45:23;100269.09;;;15.68;76.32
30708;BME280;17458;48.958;8.284;2022-09-02T03:48:07;100275.25;;;15.65;76.43
30708;BME280;17458;48.958;8.284;2022-09-02T03:50:54;100273.63;;;15.40;77.47
30708;BME280;17458;48.958;8.284;2022-09-02T03:53:39;100268.84;;;15.60;76.75
30708;BME280;17458;48.958;8.284;2022-09-02T03:56:23;100271.09;;;15.46;77.43
30708;BME280;17458;48.958;8.284;2022-09-02T03:59:08;100259.34;;;15.40;77.87
30708;BME280;17458;48.958;8.284;2022-09-02T04:01:52;100259.34;;;15.40;77.63
30708;BME280;17458;48.958;8.284;2022-09-02T04:04:37;100265.91;;;15.51;77.10
30708;BME280;17458;48.958;8.284;2022-09-02T04:07:22;100270.94;;;15.40;77.65
30708;BME280;17458;48.958;8.284;2022-09-02T04:10:07;100266.41;;;15.38;77.82
30708;BME280;17458;48.958;8.284;2022-09-02T04:12:54;100269.84;;;15.34;77.88
30708;BME280;17458;48.958;8.284;2022-09-02T04:15:39;100273.44;;;15.34;77.77
30708;BME280;17458;48.958;8.284;2022-09-02T04:22:26;100271.75;;;15.08;78.70
30708;BME280;17458;48.958;8.284;2022-09-02T04:25:10;100265.22;;;14.98;79.52
30708;BME280;17458;48.958;8.284;2022-09-02T04:27:55;100258.81;;;14.93;79.50
30708;BME280;17458;48.958;8.284;2022-09-02T04:30:41;100260.78;;;14.99;79.54
30708;BME280;17458;48.958;8.284;2022-09-02T04:33:25;100251.03;;;15.01;79.33
30708;BME280;17458;48.958;8.284;2022-09-02T04:36:13;100258.53;;;15.12;78.99
30708;BME280;17458;48.958;8.284;2022-09-02T04:38:58;100256.75;;;15.13;78.44
30708;BME280;17458;48.958;8.284;2022-09-02T04:41:46;100252.16;;;15.09;78.52
30708;BME280;17458;48.958;8.284;2022-09-02T04:44:32;100254.66;;;15.03;78.54
30708;BME280;17458;48.958;8.284;2022-09-02T04:47:16;100262.28;;;14.90;79.23
30708;BME280;17458;48.958;8.284;2022-09-02T04:50:02;100261.31;;;14.87;79.86
30708;BME280;17458;48.958;8.284;2022-09-02T04:52:49;100263.34;;;14.96;79.86
30708;BME280;17458;48.958;8.284;2022-09-02T04:55:37;100266.13;;;14.99;79.75
30708;BME280;17458;48.958;8.284;2022-09-02T04:58:22;100259.09;;;15.02;78.50
30708;BME280;17458;48.958;8.284;2022-09-02T05:01:08;100267.34;;;15.10;78.25
30708;BME280;17458;48.958;8.284;2022-09-02T05:03:53;100267.66;;;15.20;77.77
30708;BME280;17458;48.958;8.284;2022-09-02T05:06:40;100264.78;;;15.13;77.53
30708;BME280;17458;48.958;8.284;2022-09-02T05:09:25;100263.34;;;15.24;77.48
30708;BME280;17458;48.958;8.284;2022-09-02T05:12:14;100253.84;;;15.05;77.85
30708;BME280;17458;48.958;8.284;2022-09-02T05:15:05;100262.75;;;15.06;78.41
30708;BME280;17458;48.958;8.284;2022-09-02T05:17:51;100264.69;;;15.10;77.63
30708;BME280;17458;48.958;8.284;2022-09-02T05:20:40;100263.00;;;15.13;77.61
30708;BME280;17458;48.958;8.284;2022-09-02T05:23:27;100263.97;;;15.15;77.31
30708;BME280;17458;48.958;8.284;2022-09-02T05:26:12;100260.50;;;15.19;77.34
30708;BME280;17458;48.958;8.284;2022-09-02T05:28:57;100270.41;;;15.22;77.04
30708;BME280;17458;48.958;8.284;2022-09-02T05:31:43;100275.88;;;15.55;75.78
30708;BME280;17458;48.958;8.284;2022-09-02T05:34:31;100283.94;;;15.56;75.06
30708;BME280;17458;48.958;8.284;2022-09-02T05:37:18;100276.41;;;15.75;74.45
30708;BME280;17458;48.958;8.284;2022-09-02T05:40:04;100276.34;;;15.72;74.18
30708;BME280;17458;48.958;8.284;2022-09-02T05:42:51;100275.75;;;15.82;73.67
30708;BME280;17458;48.958;8.284;2022-09-02T05:45:37;100276.16;;;15.97;73.46
30708;BME280;17458;48.958;8.284;2022-09-02T05:48:22;100279.31;;;16.15;73.24
30708;BME280;17458;48.958;8.284;2022-09-02T05:51:25;100274.75;;;16.11;72.76
30708;BME280;17458;48.958;8.284;2022-09-02T05:54:18;100277.47;;;16.13;73.16
30708;BME280;17458;48.958;8.284;2022-09-02T05:57:06;100276.34;;;16.38;72.45
30708;BME280;17458;48.958;8.284;2022-09-02T05:59:53;100281.03;;;16.48;72.01
30708;BME280;17458;48.958;8.284;2022-09-02T06:02:42;100287.00;;;16.69;71.27
30708;BME280;17458;48.958;8.284;2022-09-02T06:05:33;100282.16;;;16.57;71.31
30708;BME280;17458;48.958;8.284;2022-09-02T06:08:34;100274.69;;;16.79;70.41
30708;BME280;17458;48.958;8.284;2022-09-02T06:11:18;100279.91;;;17.10;69.41
30708;BME280;17458;48.958;8.284;2022-09-02T06:14:07;100272.25;;;16.89;70.22
30708;BME280;17458;48.958;8.284;2022-09-02T06:16:55;100271.53;;;17.37;69.04
30708;BME280;17458;48.958;8.284;2022-09-02T06:19:46;100270.13;;;17.54;68.29
30708;BME280;17458;48.958;8.284;2022-09-02T06:22:31;100275.63;;;17.62;67.19
30708;BME280;17458;48.958;8.284;2022-09-02T06:25:17;100278.78;;;17.82;66.71
30708;BME280;17458;48.958;8.284;2022-09-02T06:28:04;100266.66;;;18.05;65.49
30708;BME280;17458;48.958;8.284;2022-09-02T06:30:48;100274.81;;;18.59;64.22
30708;BME280;17458;48.958;8.284;2022-09-02T06:33:37;100268.44;;;18.56;63.03
30708;BME280;17458;48.958;8.284;2022-09-02T06:36:24;100268.53;;;18.59;63.25
30708;BME280;17458;48.958;8.284;2022-09-02T06:39:12;100271.50;;;18.75;61.01
30708;BME280;17458;48.958;8.284;2022-09-02T06:41:57;100276.94;;;18.82;61.19
30708;BME280;17458;48.958;8.284;2022-09-02T06:44:45;100278.28;;;19.08;60.95
30708;BME280;17458;48.958;8.284;2022-09-02T06:47:29;100269.59;;;19.30;59.61
30708;BME280;17458;48.958;8.284;2022-09-02T06:50:14;100273.72;;;19.04;58.98
30708;BME280;17458;48.958;8.284;2022-09-02T06:52:58;100272.34;;;19.33;59.79
30708;BME280;17458;48.958;8.284;2022-09-02T06:55:44;100267.09;;;19.45;59.04
30708;BME280;17458;48.958;8.284;2022-09-02T06:58:28;100265.09;;;19.29;59.38
30708;BME280;17458;48.958;8.284;2022-09-02T07:01:25;100271.88;;;19.65;59.38
30708;BME280;17458;48.958;8.284;2022-09-02T07:04:10;100260.63;;;20.02;57.63
30708;BME280;17458;48.958;8.284;2022-09-02T07:07:13;100269.84;;;20.27;56.64
30708;BME280;17458;48.958;8.284;2022-09-02T07:10:08;100265.47;;;20.37;53.13
30708;BME280;17458;48.958;8.284;2022-09-02T07:12:54;100261.97;;;20.50;51.64
30708;BME280;17458;48.958;8.284;2022-09-02T07:15:40;100260.34;;;20.70;51.88
30708;BME280;17458;48.958;8.284;2022-09-02T07:18:25;100254.16;;;20.83;51.34
30708;BME280;17458;48.958;8.284;2022-09-02T07:21:11;100256.59;;;20.51;51.82
30708;BME280;17458;48.958;8.284;2022-09-02T07:23:58;100251.31;;;20.65;51.90
30708;BME280;17458;48.958;8.284;2022-09-02T07:26:43;100255.09;;;20.93;51.49
30708;BME280;17458;48.958;8.284;2022-09-02T07:29:29;100253.22;;;20.77;50.92
30708;BME280;17458;48.958;8.284;2022-09-02T07:32:15;100256.81;;;20.80;50.90
30708;BME280;17458;48.958;8.284;2022-09-02T07:34:59;100255.09;;;20.87;50.96
30708;BME280;17458;48.958;8.284;2022-09-02T07:37:43;100249.63;;;20.82;51.11
30708;BME280;17458;48.958;8.284;2022-09-02T07:40:27;100253.25;;;20.84;50.89
30708;BME280;17458;48.958;8.284;2022-09-02T07:43:13;100258.63;;;20.81;51.22
30708;BME280;17458;48.958;8.284;2022-09-02T07:45:59;100247.00;;;20.93;51.50
30708;BME280;17458;48.958;8.284;2022-09-02T07:48:45;100246.25;;;21.15;51.14
30708;BME280;17458;48.958;8.284;2022-09-02T07:51:35;100257.19;;;21.32;50.83
30708;BME280;17458;48.958;8.284;2022-09-02T07:54:22;100259.00;;;21.38;50.14
30708;BME280;17458;48.958;8.284;2022-09-02T07:57:08;100268.03;;;21.41;50.67
30708;BME280;17458;48.958;8.284;2022-09-02T07:59:52;100259.94;;;21.49;49.48
30708;BME280;17458;48.958;8.284;2022-09-02T08:02:37;100264.34;;;21.26;49.45
30708;BME280;17458;48.958;8.284;2022-09-02T08:05:21;100271.63;;;21.40;50.04
30708;BME280;17458;48.958;8.284;2022-09-02T08:08:05;100264.53;;;21.67;49.72
30708;BME280;17458;48.958;8.284;2022-09-02T08:10:50;100260.88;;;21.55;49.68
30708;BME280;17458;48.958;8.284;2022-09-02T08:13:35;100260.88;;;21.52;49.53
30708;BME280;17458;48.958;8.284;2022-09-02T08:16:19;100258.22;;;21.66;49.80
30708;BME280;17458;48.958;8.284;2022-09-02T08:19:04;100252.06;;;22.14;49.72
30708;BME280;17458;48.958;8.284;2022-09-02T08:21:49;100259.31;;;22.47;48.93
30708;BME280;17458;48.958;8.284;2022-09-02T08:24:33;100262.00;;;22.24;47.87
30708;BME280;17458;48.958;8.284;2022-09-02T08:27:18;100259.28;;;22.15;48.19
30708;BME280;17458;48.958;8.284;2022-09-02T08:30:05;100262.00;;;22.34;47.16
30708;BME280;17458;48.958;8.284;2022-09-02T08:32:49;100262.00;;;22.66;46.29
30708;BME280;17458;48.958;8.284;2022-09-02T08:35:33;100259.34;;;22.85;45.69
30708;BME280;17458;48.958;8.284;2022-09-02T08:38:17;100260.22;;;22.81;45.14
30708;BME280;17458;48.958;8.284;2022-09-02T08:41:01;100250.28;;;22.89;44.61
30708;BME280;17458;48.958;8.284;2022-09-02T08:43:46;100262.94;;;22.78;44.65
30708;BME280;17458;48.958;8.284;2022-09-02T08:46:32;100253.91;;;22.79;45.25
30708;BME280;17458;48.958;8.284;2022-09-02T08:49:23;100242.16;;;22.76;44.21
30708;BME280;17458;48.958;8.284;2022-09-02T08:52:15;100243.94;;;23.06;44.44
30708;BME280;17458;48.958;8.284;2022-09-02T08:55:04;100244.91;;;22.88;43.11
30708;BME280;17458;48.958;8.284;2022-09-02T08:57:50;100243.03;;;23.08;44.41
30708;BME280;17458;48.958;8.284;2022-09-02T09:00:38;100238.56;;;23.01;45.54
30708;BME280;17458;48.958;8.284;2022-09-02T09:03:28;100240.31;;;23.02;44.61
30708;BME280;17458;48.958;8.284;2022-09-02T09:06:21;100235.84;;;22.93;44.64
30708;BME280;17458;48.958;8.284;2022-09-02T09:09:38;100245.75;;;23.04;44.70
30708;BME280;17458;48.958;8.284;2022-09-02T09:15:51;100232.16;;;23.20;45.57
30708;BME280;17458;48.958;8.284;2022-09-02T09:18:42;100227.59;;;23.34;45.37
30708;BME280;17458;48.958;8.284;2022-09-02T09:21:32;100234.66;;;23.77;45.59
30708;BME280;17458;48.958;8.284;2022-09-02T09:27:12;100230.22;;;23.59;44.91
30708;BME280;17458;48.958;8.284;2022-09-02T09:29:57;100232.75;;;23.94;44.26
30708;BME280;17458;48.958;8.284;2022-09-02T09:32:45;100229.03;;;24.09;44.41
30708;BME280;17458;48.958;8.284;2022-09-02T09:35:50;100221.91;;;23.92;44.35
30708;BME280;17458;48.958;8.284;2022-09-02T09:38:34;100220.94;;;24.02;44.41
30708;BME280;17458;48.958;8.284;2022-09-02T09:41:22;100219.25;;;23.85;43.73
30708;BME280;17458;48.958;8.284;2022-09-02T09:44:07;100210.81;;;24.29;43.64
30708;BME280;17458;48.958;8.284;2022-09-02T09:47:02;100206.34;;;24.23;43.39
30708;BME280;17458;48.958;8.284;2022-09-02T09:50:16;100214.38;;;24.40;43.42
30708;BME280;17458;48.958;8.284;2022-09-02T09:53:21;100201.03;;;24.05;42.92
30708;BME280;17458;48.958;8.284;2022-09-02T09:58:58;100202.63;;;24.36;42.74
30708;BME280;17458;48.958;8.284;2022-09-02T10:01:49;100202.53;;;24.47;42.18
30708;BME280;17458;48.958;8.284;2022-09-02T10:04:34;100197.28;;;24.20;41.54
30708;BME280;17458;48.958;8.284;2022-09-02T10:07:42;100193.88;;;23.96;41.79
30708;BME280;17458;48.958;8.284;2022-09-02T10:10:28;100191.03;;;24.13;40.50
30708;BME280;17458;48.958;8.284;2022-09-02T10:13:22;100190.97;;;24.18;41.48
30708;BME280;17458;48.958;8.284;2022-09-02T10:16:36;100184.53;;;24.37;41.48
30708;BME280;17458;48.958;8.284;2022-09-02T10:25:44;100180.03;;;24.33;40.79
30708;BME280;17458;48.958;8.284;2022-09-02T10:28:54;100167.38;;;24.30;40.34
30708;BME280;17458;48.958;8.284;2022-09-02T10:35:06;100159.53;;;24.95;39.86
30708;BME280;17458;48.958;8.284;2022-09-02T10:44:27;100145.84;;;25.02;38.04
30708;BME280;17458;48.958;8.284;2022-09-02T10:47:34;100147.63;;;25.05;38.33
30708;BME280;17458;48.958;8.284;2022-09-02T10:50:33;100132.22;;;25.05;37.87
30708;BME280;17458;48.958;8.284;2022-09-02T10:56:18;100136.16;;;24.79;38.19
30708;BME280;17458;48.958;8.284;2022-09-02T10:59:15;100124.16;;;24.99;37.92
30708;BME280;17458;48.958;8.284;2022-09-02T11:05:04;100119.41;;;25.83;37.28
30708;BME280;17458;48.958;8.284;2022-09-02T11:08:00;100124.56;;;25.98;36.75
30708;BME280;17458;48.958;8.284;2022-09-02T11:11:07;100124.50;;;26.04;35.26
30708;BME280;17458;48.958;8.284;2022-09-02T11:22:54;100122.34;;;26.24;34.48
30708;BME280;17458;48.958;8.284;2022-09-02T11:25:46;100109.31;;;25.89;34.46
30708;BME280;17458;48.958;8.284;2022-09-02T11:28:38;100117.63;;;26.35;33.72
30708;BME280;17458;48.958;8.284;2022-09-02T11:31:37;100112.50;;;26.16;33.53
30708;BME280;17458;48.958;8.284;2022-09-02T11:43:44;100097.72;;;26.79;33.74
30708;BME280;17458;48.958;8.284;2022-09-02T11:53:15;100107.19;;;26.59;32.45
30708;BME280;17458;48.958;8.284;2022-09-02T11:56:04;100096.22;;;26.12;33.32
30708;BME280;17458;48.958;8.284;2022-09-02T11:58:51;100098.16;;;26.57;33.13
30708;BME280;17458;48.958;8.284;2022-09-02T12:01:36;100097.03;;;26.18;33.21
30708;BME280;17458;48.958;8.284;2022-09-02T12:04:23;100096.44;;;26.53;32.86
30708;BME280;17458;48.958;8.284;2022-09-02T12:09:54;100097.13;;;26.64;33.02
30708;BME280;17458;48.958;8.284;2022-09-02T12:15:24;100084.13;;;26.78;33.00
30708;BME280;17458;48.958;8.284;2022-09-02T12:18:27;100083.34;;;26.71;33.01
30708;BME280;17458;48.958;8.284;2022-09-02T12:21:15;100090.31;;;27.29;32.20
30708;BME280;17458;48.958;8.284;2022-09-02T12:38:35;100077.56;;;27.31;31.76
30708;BME280;17458;48.958;8.284;2022-09-02T12:41:27;100068.00;;;27.10;31.79
30708;BME280;17458;48.958;8.284;2022-09-02T12:44:21;100045.66;;;27.35;31.80
30708;BME280;17458;48.958;8.284;2022-09-02T12:50:57;100043.88;;;27.34;31.24
30708;BME280;17458;48.958;8.284;2022-09-02T12:53:45;100047.53;;;27.71;31.38
30708;BME280;17458;48.958;8.284;2022-09-02T12:56:35;100041.91;;;27.39;32.99
30708;BME280;17458;48.958;8.284;2022-09-02T12:59:33;100029.91;;;27.47;31.72
30708;BME280;17458;48.958;8.284;2022-09-02T13:05:55;100015.78;;;27.30;32.26
30708;BME280;17458;48.958;8.284;2022-09-02T13:27:53;99978.97;;;27.09;32.60
30708;BME280;17458;48.958;8.284;2022-09-02T13:31:01;99981.31;;;27.26;31.89
30708;BME280;17458;48.958;8.284;2022-09-02T13:34:02;99971.91;;;27.39;31.55
30708;BME280;17458;48.958;8.284;2022-09-02T13:36:47;99987.16;;;27.48;31.03
30708;BME280;17458;48.958;8.284;2022-09-02T13:39:31;99974.50;;;27.45;31.46
30708;BME280;17458;48.958;8.284;2022-09-02T13:42:20;99973.31;;;27.56;31.31
30708;BME280;17458;48.958;8.284;2022-09-02T13:45:12;99982.97;;;27.70;31.73
30708;BME280;17458;48.958;8.284;2022-09-02T13:47:59;99981.97;;;27.74;30.45
30708;BME280;17458;48.958;8.284;2022-09-02T13:50:48;99971.81;;;27.44;31.03
30708;BME280;17458;48.958;8.284;2022-09-02T13:53:51;99970.31;;;27.31;32.06
30708;BME280;17458;48.958;8.284;2022-09-02T13:56:35;99976.63;;;27.70;31.62
30708;BME280;17458;48.958;8.284;2022-09-02T13:59:37;99960.53;;;27.59;32.04
30708;BME280;17458;48.958;8.284;2022-09-02T14:02:30;99961.41;;;27.61;31.12
30708;BME280;17458;48.958;8.284;2022-09-02T14:05:19;99940.28;;;27.32;30.26
30708;BME280;17458;48.958;8.284;2022-09-02T14:08:06;99940.34;;;27.29;30.65
30708;BME280;17458;48.958;8.284;2022-09-02T14:10:52;99940.72;;;27.14;30.57
30708;BME280;17458;48.958;8.284;2022-09-02T14:13:41;99937.88;;;27.20;30.96
30708;BME280;17458;48.958;8.284;2022-09-02T14:16:34;99928.41;;;26.96;30.87
30708;BME280;17458;48.958;8.284;2022-09-02T14:22:02;99904.63;;;27.04;30.78
30708;BME280;17458;48.958;8.284;2022-09-02T14:24:46;99915.91;;;27.25;30.82
30708;BME280;17458;48.958;8.284;2022-09-02T14:27:30;99907.41;;;27.74;30.51
30708;BME280;17458;48.958;8.284;2022-09-02T14:30:25;99905.00;;;27.94;30.12
30708;BME280;17458;48.958;8.284;2022-09-02T14:33:22;99895.25;;;27.85;31.56
30708;BME280;17458;48.958;8.284;2022-09-02T14:39:16;99888.38;;;27.71;30.85
30708;BME280;17458;48.958;8.284;2022-09-02T14:42:04;99886.66;;;27.67;30.30
30708;BME280;17458;48.958;8.284;2022-09-02T14:44:49;99900.91;;;27.44;30.80
30708;BME280;17458;48.958;8.284;2022-09-02T14:47:36;99891.84;;;27.42;31.00
30708;BME280;17458;48.958;8.284;2022-09-02T14:50:26;99896.84;;;27.25;31.16
30708;BME280;17458;48.958;8.284;2022-09-02T14:53:18;99887.81;;;27.58;30.73
30708;BME280;17458;48.958;8.284;2022-09-02T14:56:04;99898.13;;;27.45;30.54
30708;BME280;17458;48.958;8.284;2022-09-02T14:58:49;99894.75;;;27.36;31.08
30708;BME280;17458;48.958;8.284;2022-09-02T15:01:38;99893.63;;;27.44;30.50
30708;BME280;17458;48.958;8.284;2022-09-02T15:04:23;99888.75;;;27.57;30.29
30708;BME280;17458;48.958;8.284;2022-09-02T15:07:07;99887.44;;;27.72;30.76
30708;BME280;17458;48.958;8.284;2022-09-02T15:09:51;99891.16;;;27.69;30.76
30708;BME280;17458;48.958;8.284;2022-09-02T15:12:39;99892.84;;;27.38;30.92
30708;BME280;17458;48.958;8.284;2022-09-02T15:15:25;99891.34;;;27.26;30.87
30708;BME280;17458;48.958;8.284;2022-09-02T15:18:10;99883.13;;;27.28;30.79
30708;BME280;17458;48.958;8.284;2022-09-02T15:20:54;99896.72;;;27.29;31.17
30708;BME280;17458;48.958;8.284;2022-09-02T15:23:38;99889.72;;;27.19;31.57
30708;BME280;17458;48.958;8.284;2022-09-02T15:26:23;99890.66;;;27.18;31.20
30708;BME280;17458;48.958;8.284;2022-09-02T15:29:07;99884.75;;;26.99;31.19
30708;BME280;17458;48.958;8.284;2022-09-02T15:31:52;99891.41;;;26.86;31.43
30708;BME280;17458;48.958;8.284;2022-09-02T15:34:36;99892.81;;;27.04;31.78
30708;BME280;17458;48.958;8.284;2022-09-02T15:37:20;99885.09;;;26.84;31.72
30708;BME280;17458;48.958;8.284;2022-09-02T15:40:06;99888.56;;;26.91;31.45
30708;BME280;17458;48.958;8.284;2022-09-02T15:42:51;99880.56;;;26.83;31.87
30708;BME280;17458;48.958;8.284;2022-09-02T15:45:44;99879.84;;;26.75;31.72
30708;BME280;17458;48.958;8.284;2022-09-02T15:48:31;99877.88;;;26.81;31.75
30708;BME280;17458;48.958;8.284;2022-09-02T15:51:17;99874.38;;;26.76;31.59
30708;BME280;17458;48.958;8.284;2022-09-02T15:54:04;99873.44;;;26.77;32.07
30708;BME280;17458;48.958;8.284;2022-09-02T15:56:53;99867.28;;;26.68;32.15
30708;BME280;17458;48.958;8.284;2022-09-02T15:59:39;99860.44;;;26.52;31.94
30708;BME280;17458;48.958;8.284;2022-09-02T16:02:24;99872.38;;;26.44;32.37
30708;BME280;17458;48.958;8.284;2022-09-02T16:05:08;99866.91;;;26.46;32.50
30708;BME280;17458;48.958;8.284;2022-09-02T16:07:57;99849.25;;;26.22;32.28
30708;BME280;17458;48.958;8.284;2022-09-02T16:10:41;99854.69;;;26.24;32.57
30708;BME280;17458;48.958;8.284;2022-09-02T16:13:24;99853.53;;;26.35;33.00
30708;BME280;17458;48.958;8.284;2022-09-02T16:16:13;99853.66;;;26.28;32.77
30708;BME280;17458;48.958;8.284;2022-09-02T16:18:57;99855.47;;;26.27;32.84
30708;BME280;17458;48.958;8.284;2022-09-02T16:21:41;99856.53;;;26.22;33.04
30708;BME280;17458;48.958;8.284;2022-09-02T16:24:26;99859.25;;;26.22;32.91
30708;BME280;17458;48.958;8.284;2022-09-02T16:27:10;99861.19;;;26.15;33.00
30708;BME280;17458;48.958;8.284;2022-09-02T16:29:54;99856.56;;;26.20;33.33
30708;BME280;17458;48.958;8.284;2022-09-02T16:32:38;99849.16;;;26.25;33.28